DTTJ/DJE METAR and TAF weather

Enter ICAO airport designator
Station Type Date Time Source
DTTJ METAR 2022/01/25 10:30 UTC NOAA

DTTJ 251030Z 01011KT 9999 SCT023 14/07 Q1030 NOSIG


Station Type Date Time Source
DTTJ Decoded METAR 2022/01/25 10:30 UTC NOAA

Djerba Mellita, Tunisia (DTTJ) 33-52N 010-46E 4M
Jan 25, 2022 - 05:30 AM EST / 2022.01.25 1030 UTC
Wind: from the N (010 degrees) at 13 MPH (11 KT):0
Visibility: greater than 7 mile(s):0
Sky conditions: partly cloudy
Temperature: 57 F (14 C)
Dew Point: 44 F (7 C)
Relative Humidity: 62%
Pressure (altimeter): 30.42 in. Hg (1030 hPa)
ob: DTTJ 251030Z 01011KT 9999 SCT023 14/07 Q1030 NOSIG
cycle: 10

Station Type Date Time Source
DTTJ TAF 2022/01/27 18:42 UTC NOAA

TAF DTTJ 271700Z 2718/2818 17004KT CAVOK
BECMG 2805/2807 27010KT
BECMG 2816/2818 21004KT

Example: see airport list